Bei Facebook empfehlenBei Twitter postenGoogle plusPinterest

Das Wetter im Erzgebirge am 28.10.2016

Wetter und Klima am 28.10.2016 Holzhau im Erzgebirge (630m ü.NN)
Letzte gemessene Temperatur und Uhrzeit der Messung23:45:00 Uhr8.30 °C
Temperatur (Maximum / Höchstwert) und Uhrzeit der Messung13:30:00 Uhr8.90 °C
Temperatur (Minimum / Tiefstwert) und Uhrzeit der Messung04:15:002.90 °C
Errechneter Absolutwert der Temperaturschwankungen zwischen Tmin und Tmax des Tages6.00 K
Errechnete Tagesmitteltemperatur7.08542 °C
Gesamt - Niederschlag des Tages (in flüssiger Form)2.59 Liter / m²
Luftdruck (Maximum / Höchstwert) und Zeitpunkt der Messung00:00:00 Uhr1027.90 hPa
Luftdruck (Minimum / Tiefstwert) und Zeitpunkt der Messung17:00:00 Uhr1024.80 hPa
Errechneter Absolutwert der Luftdruckschwankungen des Tages3.10 hPa
Höchste gemessene Windgeschwindigkeit und Uhrzeit der Messung23:45:00 Uhr0.00 km/h
Errechnete Windhäufigkeit in Relation zu den Messwerten des Tages0.00000 %
Niedrigste Windkühle (Windchill) und Zeitpunkt der Messung04:15:00 Uhr2.90 °C
Taupunkt (Maximum / Höchstwert) und Uhrzeit der Messung23:45:00 Uhr7.90 °C
Taupunkt (Minimum / Tiefstwert) und Uhrzeit der Messung04:15:002.20 °C
Anzahl der automatisch eingelesenen Messwerte 96

Detaillierte Wetter- und Klima- Messwerte für den 28.10.2016 in Holzhau im Erzgebirge (630m ü.NN)
ZeitTemperaturLuftdruckRel. LuftfeuchteWindWindrichtungWindchillTaupunktNiederschlag l/m²
23:45:008.30 °C1025.30 hPa97.00 %7.90 °C2.59
23:30:008.30 °C1025.30 hPa97.00 %7.90 °C2.07
23:15:008.30 °C1025.20 hPa97.00 %7.90 °C2.07
23:00:008.30 °C1025.10 hPa97.00 %7.90 °C2.07
22:45:008.30 °C1025.20 hPa97.00 %7.90 °C2.07
22:30:008.30 °C1025.30 hPa97.00 %7.90 °C2.07
22:15:008.30 °C1025.10 hPa97.00 %7.90 °C2.07
22:00:008.30 °C1025.20 hPa97.00 %7.90 °C2.07
21:45:008.30 °C1025.30 hPa97.00 %7.90 °C1.55
21:30:008.20 °C1025.10 hPa97.00 %7.80 °C1.55
21:15:008.20 °C1025.20 hPa97.00 %7.80 °C1.55
21:00:008.10 °C1025.20 hPa97.00 %7.70 °C1.55
20:45:008.10 °C1025.50 hPa96.00 %7.50 °C1.55
20:30:008.10 °C1025.50 hPa96.00 %7.50 °C1.55
20:15:008.10 °C1025.50 hPa96.00 %7.50 °C1.04
20:00:007.90 °C1025.60 hPa96.00 %7.30 °C1.04
19:45:007.90 °C1025.50 hPa96.00 %7.30 °C1.04
19:30:007.90 °C1025.20 hPa96.00 %7.30 °C1.04
19:15:007.80 °C1025.50 hPa95.00 %7.10 °C1.04
19:00:007.80 °C1025.60 hPa95.00 %7.10 °C1.04
18:45:007.80 °C1025.30 hPa95.00 %7.10 °C1.04
18:30:007.70 °C1025.20 hPa95.00 %7.00 °C1.04
18:15:007.60 °C1025.10 hPa95.00 %6.90 °C1.04
18:00:007.60 °C1025.20 hPa95.00 %6.90 °C1.04
17:45:007.80 °C1025.10 hPa94.00 %6.90 °C1.04
17:30:007.80 °C1025.20 hPa94.00 %6.90 °C0.52
17:15:007.90 °C1025.20 hPa94.00 %7.00 °C0.52
17:00:008.00 °C1024.80 hPa93.00 %6.90 °C0.52
16:45:008.10 °C1024.90 hPa93.00 %7.00 °C 
16:30:008.20 °C1025.20 hPa93.00 %7.10 °C 
16:15:008.30 °C1025.10 hPa93.00 %7.20 °C 
16:00:008.20 °C1024.80 hPa92.00 %7.00 °C 
15:45:008.20 °C1024.90 hPa92.00 %7.00 °C 
15:30:008.30 °C1025.00 hPa91.00 %6.90 °C 
15:15:008.60 °C1025.20 hPa91.00 %7.20 °C 
15:00:008.80 °C1025.10 hPa91.00 %7.40 °C 
14:45:008.70 °C1024.90 hPa91.00 %7.30 °C 
14:30:008.60 °C1025.10 hPa91.00 %7.20 °C 
14:15:008.60 °C1025.10 hPa91.00 %7.20 °C 
14:00:008.80 °C1025.60 hPa91.00 %7.40 °C 
13:45:008.80 °C1025.70 hPa91.00 %7.40 °C 
13:30:008.90 °C1025.70 hPa91.00 %7.50 °C 
13:15:008.80 °C1025.30 hPa91.00 %7.40 °C 
13:00:008.60 °C1025.30 hPa91.00 %7.20 °C 
12:45:008.40 °C1025.90 hPa92.00 %7.20 °C 
12:30:008.40 °C1026.00 hPa92.00 %7.20 °C 
12:15:008.40 °C1026.30 hPa92.00 %7.20 °C 
12:00:008.50 °C1025.90 hPa93.00 %7.40 °C 
11:45:008.50 °C1026.30 hPa93.00 %7.40 °C 
11:30:008.40 °C1026.00 hPa94.00 %7.50 °C 
11:15:008.20 °C1026.00 hPa94.00 %7.30 °C 
11:00:008.20 °C1026.00 hPa95.00 %7.40 °C 
10:45:008.20 °C1026.10 hPa95.00 %7.40 °C 
10:30:008.00 °C1026.50 hPa95.00 %7.20 °C 
10:15:007.80 °C1026.30 hPa96.00 %7.20 °C 
10:00:007.60 °C1026.50 hPa96.00 %7.00 °C 
09:45:007.60 °C1026.20 hPa96.00 %7.00 °C 
09:30:007.40 °C1025.80 hPa96.00 %6.80 °C 
09:15:007.20 °C1025.80 hPa96.00 %6.60 °C 
09:00:006.90 °C1026.00 hPa96.00 %6.30 °C 
08:45:006.70 °C1026.10 hPa96.00 %6.10 °C 
08:30:006.50 °C1025.80 hPa96.00 %5.90 °C 
08:15:006.30 °C1025.70 hPa96.00 %5.70 °C 
08:00:006.10 °C1025.80 hPa97.00 %5.70 °C 
07:45:006.00 °C1025.90 hPa96.00 %5.40 °C 
07:30:005.90 °C1026.00 hPa97.00 %5.50 °C 
07:15:005.60 °C1025.90 hPa97.00 %5.20 °C 
07:00:005.30 °C1025.90 hPa96.00 %4.70 °C 
06:45:005.10 °C1026.00 hPa96.00 %4.50 °C 
06:30:004.70 °C1026.20 hPa96.00 %4.10 °C 
06:15:004.20 °C1026.30 hPa96.00 %3.60 °C 
06:00:003.80 °C1026.20 hPa96.00 %3.20 °C 
05:45:003.80 °C1026.30 hPa96.00 %3.20 °C 
05:30:004.00 °C1026.70 hPa95.00 %3.30 °C 
05:15:004.10 °C1026.80 hPa95.00 %3.40 °C 
05:00:004.30 °C1026.50 hPa96.00 %3.70 °C 
04:45:003.90 °C1026.20 hPa95.00 %3.20 °C 
04:30:003.60 °C1026.40 hPa96.00 %3.00 °C 
04:15:002.90 °C1026.70 hPa95.00 %2.20 °C 
04:00:003.00 °C1026.90 hPa95.00 %2.30 °C 
03:45:003.10 °C1027.50 hPa95.00 %2.40 °C 
03:30:003.30 °C1027.40 hPa95.00 %2.60 °C 
03:15:003.60 °C1027.40 hPa95.00 %2.90 °C 
03:00:003.90 °C1027.80 hPa95.00 %3.20 °C 
02:45:004.40 °C1027.70 hPa95.00 %3.70 °C 
02:30:005.20 °C1027.30 hPa95.00 %4.50 °C 
02:15:006.20 °C1026.90 hPa95.00 %5.50 °C 
02:00:006.70 °C1027.00 hPa96.00 %6.10 °C 
01:45:006.90 °C1027.40 hPa96.00 %6.30 °C 
01:30:006.90 °C1027.70 hPa96.00 %6.30 °C 
01:15:007.10 °C1027.60 hPa96.00 %6.50 °C 
01:00:007.30 °C1027.60 hPa96.00 %6.70 °C 
00:45:007.50 °C1027.50 hPa96.00 %6.90 °C 
00:30:007.60 °C1027.70 hPa96.00 %7.00 °C 
00:15:007.70 °C1027.70 hPa96.00 %7.10 °C 
00:00:007.80 °C1027.90 hPa96.00 %7.20 °C 

Permanenter Link zu dieser Seite: Wetter im Erzgebirge am 28.10.2016
Performance-Info: Die Erstellung der Seite / Statistik(en) / Tabelle(n) erforderte 5 Datenbankserver-Abfrage(n) und dauerte 121 Millisekunden. (Dieser Messwert ist von der Gesamt-Auslastung des Servers abhängig.)
Erzgebirge - Wetter | Erzgebirge - Wetter (Mobilgeräte) | Komplette Klimadatenbank